Time;durP1;ratioP1;P1;durP2;ratioP2;P2;SDS_P1;SDS_P2;PMS_P1;PMS_P2;Temp;Humidity;BMP_temperature;BMP_pressure;BME280_temperature;BME280_humidity;BME280_pressure;Samples;Min_cycle;Max_cycle;Signal;HPM_P1;HPM_P2
2021/11/01 00:01:51;;;;;;;27.92;17.45;;;;;;;8.07;66.69;100284.25;5034443;28;20116;-57
2021/11/01 00:04:17;;;;;;;26.42;16.45;;;;;;;8.07;66.89;100280.63;5034504;28;20018;-55
2021/11/01 00:06:43;;;;;;;27.08;16.60;;;;;;;8.03;66.42;100272.22;5034081;28;20029;-59
2021/11/01 00:09:09;;;;;;;24.92;17.05;;;;;;;8.01;67.15;100277.41;5035867;28;20045;-58
2021/11/01 00:11:34;;;;;;;28.35;17.67;;;;;;;8.03;67.07;100260.22;5036387;28;20111;-57
2021/11/01 00:14:00;;;;;;;22.40;15.25;;;;;;;8.04;67.26;100259.81;5036077;28;20029;-57
2021/11/01 00:16:25;;;;;;;26.48;15.88;;;;;;;8.02;67.73;100264.22;5036207;28;20416;-58
2021/11/01 00:18:51;;;;;;;29.10;16.40;;;;;;;7.99;67.01;100256.59;5036403;28;20427;-58
2021/11/01 00:21:17;;;;;;;26.30;15.30;;;;;;;7.94;67.04;100252.16;5035853;28;20368;-58
2021/11/01 00:23:44;;;;;;;27.83;16.33;;;;;;;7.88;67.38;100250.91;5036249;28;20032;-58
2021/11/01 00:26:10;;;;;;;24.33;16.45;;;;;;;7.88;67.41;100250.91;5036337;28;20022;-57
2021/11/01 00:28:36;;;;;;;23.40;15.52;;;;;;;7.90;67.54;100245.72;5035970;28;20090;-57
2021/11/01 00:31:02;;;;;;;25.00;15.73;;;;;;;7.93;68.13;100244.13;5036072;28;20053;-59
2021/11/01 00:33:27;;;;;;;25.55;15.85;;;;;;;7.89;67.74;100246.91;5036045;28;20312;-58
2021/11/01 00:35:54;;;;;;;26.90;15.98;;;;;;;7.89;68.22;100243.31;5035799;28;20036;-58
2021/11/01 00:38:20;;;;;;;27.70;17.17;;;;;;;7.89;68.09;100235.72;5035887;28;20022;-56
2021/11/01 00:40:45;;;;;;;28.70;16.00;;;;;;;7.88;68.77;100236.91;5036249;28;20029;-58
2021/11/01 00:43:11;;;;;;;29.17;16.33;;;;;;;7.91;68.43;100232.53;5035943;28;20045;-57
2021/11/01 00:45:37;;;;;;;24.23;15.38;;;;;;;7.94;68.57;100229.78;5035716;28;20033;-59
2021/11/01 00:48:03;;;;;;;24.58;15.40;;;;;;;8.02;68.69;100230.63;5035416;28;20124;-55
2021/11/01 00:50:30;;;;;;;23.40;15.98;;;;;;;8.04;68.25;100223.44;5035777;28;20036;-59
2021/11/01 00:52:56;;;;;;;24.73;16.05;;;;;;;8.02;67.91;100219.44;5035495;28;20028;-57
2021/11/01 00:58:06;;;;;;;24.77;16.58;;;;;;;8.06;68.37;100215.44;5034077;28;20109;-58
2021/11/01 01:00:32;;;;;;;28.00;16.50;;;;;;;8.06;68.50;100212.66;5034806;28;20100;-58
2021/11/01 01:02:58;;;;;;;25.10;16.02;;;;;;;8.11;67.87;100211.47;5035256;28;20033;-59
2021/11/01 01:05:24;;;;;;;26.15;15.77;;;;;;;8.08;67.73;100212.25;5034296;28;20464;-60
2021/11/01 01:07:50;;;;;;;28.63;16.20;;;;;;;8.09;67.87;100201.88;5034902;28;20057;-59
2021/11/01 01:10:15;;;;;;;25.38;16.52;;;;;;;8.09;68.61;100199.88;5033733;28;20033;-58
2021/11/01 01:12:44;;;;;;;27.05;16.75;;;;;;;8.15;68.24;100195.50;5035437;28;20025;-59
2021/11/01 01:15:16;;;;;;;24.95;15.88;;;;;;;8.16;68.18;100185.09;5034688;28;20032;-59
2021/11/01 01:17:43;;;;;;;26.20;15.70;;;;;;;8.12;68.54;100187.09;5035306;28;20103;-60
2021/11/01 01:20:12;;;;;;;29.30;17.58;;;;;;;8.07;68.22;100182.66;5034194;28;20021;-60
2021/11/01 01:22:38;;;;;;;28.40;16.55;;;;;;;8.05;68.34;100179.47;5034766;28;20087;-60
2021/11/01 01:25:17;;;;;;;32.45;18.30;;;;;;;8.03;68.41;100179.03;5034719;28;20017;-59
2021/11/01 01:27:43;;;;;;;33.25;17.98;;;;;;;8.11;68.95;100166.69;5017642;28;20033;-57
2021/11/01 01:30:11;;;;;;;32.88;17.95;;;;;;;8.19;68.75;100170.31;5034989;28;20025;-58
2021/11/01 01:32:36;;;;;;;32.60;17.73;;;;;;;8.14;68.28;100165.91;5034686;28;20013;-59
2021/11/01 01:35:02;;;;;;;24.92;15.25;;;;;;;8.10;68.52;100165.09;5034445;28;20059;-59
2021/11/01 01:37:28;;;;;;;23.33;15.70;;;;;;;8.07;68.50;100161.06;5034826;28;20044;-58
2021/11/01 01:39:53;;;;;;;24.23;16.02;;;;;;;8.06;68.86;100158.66;5034454;28;20170;-59
2021/11/01 01:42:18;;;;;;;26.50;15.68;;;;;;;8.05;68.64;100155.06;5034584;28;20316;-58
2021/11/01 01:44:44;;;;;;;27.77;16.10;;;;;;;8.00;68.72;100152.66;5035025;28;20029;-59
2021/11/01 01:47:10;;;;;;;25.52;16.80;;;;;;;7.97;68.58;100156.22;5034846;28;20042;-59
2021/11/01 01:49:36;;;;;;;26.10;16.42;;;;;;;7.94;68.95;100161.78;5034036;28;20054;-58
2021/11/01 01:52:03;;;;;;;25.30;16.52;;;;;;;7.95;68.85;100157.81;5034812;28;20029;-58
2021/11/01 01:54:28;;;;;;;27.88;17.15;;;;;;;8.01;69.83;100151.44;5033886;28;20317;-56
2021/11/01 01:56:53;;;;;;;31.92;17.42;;;;;;;8.01;69.29;100156.25;5032823;28;20022;-55
2021/11/01 01:59:20;;;;;;;28.52;17.83;;;;;;;8.01;69.28;100150.66;5032790;28;20377;-55
2021/11/01 02:01:49;;;;;;;27.10;17.48;;;;;;;7.98;69.41;100148.63;5031912;28;20017;-55
2021/11/01 02:04:21;;;;;;;30.55;16.60;;;;;;;7.97;68.87;100156.22;5033956;28;20021;-58
2021/11/01 02:07:23;;;;;;;23.80;16.30;;;;;;;7.91;68.80;100151.38;5033115;28;20030;-57
2021/11/01 02:10:02;;;;;;;28.02;16.40;;;;;;;7.83;69.55;100155.31;5032847;28;20032;-57
2021/11/01 02:12:46;;;;;;;22.25;15.60;;;;;;;7.74;69.59;100148.09;5032596;28;20417;-59
2021/11/01 02:15:15;;;;;;;28.20;17.33;;;;;;;7.69;69.50;100151.25;5032544;28;20033;-58
2021/11/01 02:17:42;;;;;;;29.63;17.13;;;;;;;7.65;69.97;100158.78;5034515;28;20021;-56
2021/11/01 02:20:10;;;;;;;30.52;17.45;;;;;;;7.61;69.77;100146.78;5034650;28;20030;-59
2021/11/01 02:22:51;;;;;;;29.15;17.05;;;;;;;7.58;70.00;100149.53;5037478;28;20022;-59
2021/11/01 02:25:42;;;;;;;25.85;17.70;;;;;;;7.57;69.86;100157.13;5037187;28;20036;-56
2021/11/01 02:28:10;;;;;;;27.45;16.92;;;;;;;7.54;69.80;100157.13;5034714;28;20029;-58
2021/11/01 02:30:39;;;;;;;28.17;18.70;;;;;;;7.46;69.65;100147.88;5038074;28;20028;-58
2021/11/01 02:33:09;;;;;;;28.35;17.75;;;;;;;7.36;69.93;100140.97;5036853;28;20163;-58
2021/11/01 02:35:35;;;;;;;30.38;18.95;;;;;;;7.26;69.89;100146.50;5035023;28;20032;-57
2021/11/01 02:38:04;;;;;;;29.77;18.02;;;;;;;7.16;69.84;100138.84;5035304;28;20148;-58
2021/11/01 02:40:30;;;;;;;29.77;18.23;;;;;;;7.02;69.95;100140.28;5034780;28;20463;-59
2021/11/01 02:42:56;;;;;;;27.98;18.55;;;;;;;6.90;70.04;100132.22;5036769;28;20025;-58
2021/11/01 02:45:22;;;;;;;32.13;20.83;;;;;;;6.79;69.83;100137.66;5035330;28;20024;-58
2021/11/01 02:47:48;;;;;;;27.05;18.83;;;;;;;6.69;70.19;100131.97;5035936;28;20049;-58
2021/11/01 02:50:16;;;;;;;26.67;18.40;;;;;;;6.58;70.41;100131.88;5037503;28;20463;-57
2021/11/01 02:52:41;;;;;;;31.25;18.33;;;;;;;6.49;70.47;100134.16;5037144;28;20036;-58
2021/11/01 02:55:09;;;;;;;26.33;16.60;;;;;;;6.39;70.94;100130.06;5036245;28;20025;-59
2021/11/01 02:57:34;;;;;;;27.80;16.85;;;;;;;6.31;70.90;100127.56;5035995;28;20021;-58
2021/11/01 03:00:00;;;;;;;29.40;18.17;;;;;;;6.26;70.88;100133.47;5031671;28;20021;-59
2021/11/01 03:02:25;;;;;;;28.92;18.13;;;;;;;6.21;71.22;100123.44;5036987;28;20109;-58
2021/11/01 03:04:51;;;;;;;31.50;19.02;;;;;;;6.19;71.48;100121.03;5037397;28;20076;-59
2021/11/01 03:07:18;;;;;;;36.63;19.35;;;;;;;6.16;71.74;100123.78;5037530;28;20026;-59
2021/11/01 03:09:45;;;;;;;28.98;19.02;;;;;;;6.11;71.87;100115.75;5036759;28;20424;-58
2021/11/01 03:12:13;;;;;;;27.67;18.13;;;;;;;6.09;72.25;100112.53;5035839;28;20024;-59
2021/11/01 03:14:45;;;;;;;147.00;21.73;;;;;;;6.02;72.36;100109.63;5037398;28;20075;-59
2021/11/01 03:17:14;;;;;;;27.23;17.80;;;;;;;5.89;72.30;100114.63;5033463;28;20188;-59
2021/11/01 03:19:43;;;;;;;30.00;18.60;;;;;;;5.77;72.26;100109.28;5036651;28;20504;-59
2021/11/01 03:22:10;;;;;;;28.83;18.60;;;;;;;5.64;72.24;100113.47;5036693;28;20352;-58
2021/11/01 03:24:39;;;;;;;37.22;19.80;;;;;;;5.59;73.25;100111.81;5037323;28;20087;-58
2021/11/01 03:27:07;;;;;;;26.92;18.38;;;;;;;5.54;73.17;100109.34;5036246;28;20328;-59
2021/11/01 03:29:34;;;;;;;28.38;17.80;;;;;;;5.44;73.63;100110.78;5036323;28;20045;-58
2021/11/01 03:32:02;;;;;;;28.67;17.95;;;;;;;5.41;73.81;100111.53;5036519;28;20029;-56
2021/11/01 03:34:29;;;;;;;31.90;18.80;;;;;;;5.41;74.09;100113.53;5037100;28;20305;-59
2021/11/01 03:36:57;;;;;;;32.20;19.75;;;;;;;5.41;74.57;100108.75;5036935;28;20083;-58
2021/11/01 03:39:23;;;;;;;28.33;18.77;;;;;;;5.40;75.15;100100.75;5036905;28;20394;-56
2021/11/01 03:41:50;;;;;;;32.00;19.60;;;;;;;5.39;75.51;100099.16;5037133;28;20108;-58
2021/11/01 03:44:19;;;;;;;29.83;18.42;;;;;;;5.39;75.69;100090.78;5036603;28;20064;-57
2021/11/01 03:46:53;;;;;;;31.42;19.73;;;;;;;5.39;75.85;100097.16;5036671;28;20037;-58
2021/11/01 03:49:19;;;;;;;35.63;20.23;;;;;;;5.39;76.21;100090.78;5036697;28;20021;-58
2021/11/01 03:54:13;;;;;;;34.88;19.23;;;;;;;5.39;76.15;100083.22;5036724;28;20063;-59
2021/11/01 03:56:39;;;;;;;28.67;19.67;;;;;;;5.36;75.84;100084.00;5036726;28;20025;-58
2021/11/01 03:59:06;;;;;;;32.75;20.58;;;;;;;5.36;76.35;100088.75;5036138;28;20029;-56
2021/11/01 04:01:36;;;;;;;29.00;18.90;;;;;;;5.36;75.92;100088.75;5036708;28;20017;-56
2021/11/01 04:04:02;;;;;;;38.58;21.40;;;;;;;5.33;75.96;100083.94;5036653;28;20029;-58
2021/11/01 04:06:27;;;;;;;32.60;20.95;;;;;;;5.34;76.49;100080.78;5036304;28;20030;-58
2021/11/01 04:08:54;;;;;;;33.80;21.58;;;;;;;5.38;76.32;100072.47;5036810;28;20033;-58
2021/11/01 04:11:20;;;;;;;33.80;21.00;;;;;;;5.36;76.14;100069.25;5036611;28;20025;-55
2021/11/01 04:13:45;;;;;;;34.63;20.90;;;;;;;5.30;76.14;100065.19;5018861;28;20032;-59
2021/11/01 04:16:14;;;;;;;36.53;20.17;;;;;;;5.28;76.32;100055.22;5036239;28;20022;-57
2021/11/01 04:19:05;;;;;;;39.60;22.13;;;;;;;5.27;76.37;100061.16;5036254;28;20025;-56
2021/11/01 04:21:26;;;;;;;39.67;21.45;;;;;;;5.22;76.26;100055.91;5035664;28;20121;-59
2021/11/01 04:23:51;;;;;;;39.00;22.13;;;;;;;5.22;76.36;100055.91;5036402;28;20060;-57
2021/11/01 04:26:19;;;;;;;36.05;21.02;;;;;;;5.16;76.02;100055.41;5034398;28;20047;-59
2021/11/01 04:28:45;;;;;;;38.78;22.02;;;;;;;5.15;76.35;100061.34;5035624;28;20060;-58
2021/11/01 04:31:16;;;;;;;35.67;20.75;;;;;;;5.12;76.71;100045.41;5036142;28;20053;-59
2021/11/01 04:33:42;;;;;;;32.50;21.63;;;;;;;5.11;76.47;100043.78;5036162;28;20052;-56
2021/11/01 04:36:09;;;;;;;37.30;21.60;;;;;;;5.03;76.36;100044.88;5036188;28;20024;-58
2021/11/01 04:41:26;;;;;;;34.83;21.98;;;;;;;4.92;76.33;100055.81;5036149;28;20116;-57
2021/11/01 04:55:07;;;;;;;35.53;20.75;;;;;;;4.83;76.29;100044.94;4936552;29;20063;-59
2021/11/01 04:57:32;;;;;;;33.88;20.80;;;;;;;4.80;76.78;100034.53;4995945;28;20048;-58
2021/11/01 04:59:58;;;;;;;33.45;20.08;;;;;;;4.78;77.13;100036.09;5035674;28;20022;-57
2021/11/01 05:02:25;;;;;;;32.28;20.65;;;;;;;4.73;76.71;100033.63;5035214;28;20029;-57
2021/11/01 05:04:51;;;;;;;33.03;21.67;;;;;;;4.70;77.16;100034.38;5035666;28;20026;-58
2021/11/01 05:07:18;;;;;;;33.75;23.10;;;;;;;4.65;76.77;100032.69;5035762;28;20021;-58
2021/11/01 05:09:54;;;;;;;42.33;22.85;;;;;;;4.64;76.96;100037.44;5035126;28;20397;-57
2021/11/01 05:20:37;;;;;;;29.80;18.33;;;;;;;4.50;76.69;100020.50;4979199;28;20053;-58
2021/11/01 05:23:13;;;;;;;29.75;19.83;;;;;;;4.53;76.61;100024.53;5035300;28;20169;-56
2021/11/01 05:30:36;;;;;;;33.78;21.27;;;;;;;4.63;77.62;100016.34;5022120;28;20029;-59
2021/11/01 05:33:23;;;;;;;31.27;20.85;;;;;;;4.67;77.34;100019.22;5017903;28;20033;-57
2021/11/01 05:35:48;;;;;;;31.98;20.00;;;;;;;4.71;77.59;100013.72;5023197;28;20028;-59
2021/11/01 05:38:13;;;;;;;29.48;20.25;;;;;;;4.68;77.21;100017.25;5035144;28;20030;-59
2021/11/01 05:40:39;;;;;;;33.97;19.45;;;;;;;4.67;77.22;100010.06;5034822;28;20104;-57
2021/11/01 05:43:05;;;;;;;31.05;19.60;;;;;;;4.65;77.47;100015.97;5035200;28;20152;-58
2021/11/01 05:45:30;;;;;;;34.38;19.65;;;;;;;4.62;77.19;100013.94;5034887;28;20151;-58
2021/11/01 05:47:58;;;;;;;28.88;19.90;;;;;;;4.59;77.39;100026.63;5034975;28;20128;-58
2021/11/01 05:50:26;;;;;;;33.85;19.58;;;;;;;4.64;77.38;100028.28;5034999;28;20405;-58
2021/11/01 05:52:51;;;;;;;33.78;19.92;;;;;;;4.67;77.77;100024.00;5035314;28;20420;-58
2021/11/01 05:55:32;;;;;;;30.90;19.75;;;;;;;4.73;78.20;100033.63;5035046;28;20049;-58
2021/11/01 05:58:14;;;;;;;32.28;19.58;;;;;;;4.75;77.35;100034.06;5038934;28;20328;-58
2021/11/01 06:03:16;;;;;;;32.88;19.88;;;;;;;4.86;77.39;100033.06;5039256;28;20048;-58
2021/11/01 06:15:52;;;;;;;34.15;21.10;;;;;;;5.32;77.13;100032.16;5038546;28;20140;-59
2021/11/01 06:18:17;;;;;;;36.05;22.10;;;;;;;5.50;77.20;100022.88;5038559;28;20060;-59
2021/11/01 06:20:43;;;;;;;38.05;22.52;;;;;;;5.73;76.63;100019.97;5038777;28;20818;-56
2021/11/01 06:23:08;;;;;;;41.75;23.63;;;;;;;5.93;76.08;100028.22;5038359;28;20072;-58
2021/11/01 06:25:34;;;;;;;43.35;24.25;;;;;;;6.15;75.10;100027.28;5038106;28;20021;-58
2021/11/01 06:27:59;;;;;;;39.03;22.15;;;;;;;6.38;74.13;100019.56;5038535;28;20048;-55
2021/11/01 06:30:29;;;;;;;34.33;21.10;;;;;;;6.66;72.83;100029.41;5038129;28;20025;-58
2021/11/01 06:42:01;;;;;;;29.17;19.17;;;;;;;7.50;69.02;100034.03;5038342;28;20136;-59
2021/11/01 08:29:54;;;;;;;29.55;19.73;;;;;;;11.62;63.02;99992.09;5035947;28;20014;-57
2021/11/01 08:38:04;;;;;;;30.05;18.58;;;;;;;11.91;62.18;99984.94;5036202;28;20025;-60
2021/11/01 09:04:39;;;;;;;27.73;18.88;;;;;;;12.76;59.75;99953.91;5035210;28;20017;-59
2021/11/01 09:41:45;;;;;;;25.33;17.38;;;;;;;13.71;56.96;99920.31;5023357;28;20021;-59
2021/11/01 09:44:15;;;;;;;29.45;17.80;;;;;;;13.75;57.59;99923.84;5032715;28;20021;-59
2021/11/01 09:46:41;;;;;;;25.08;17.38;;;;;;;13.81;57.57;99915.66;5023823;28;20026;-60
2021/11/01 09:49:16;;;;;;;24.13;16.70;;;;;;;13.83;56.91;99908.34;5027713;28;20029;-60
2021/11/01 09:51:49;;;;;;;27.48;17.85;;;;;;;13.90;56.46;99913.81;5038760;28;20025;-60
2021/11/01 09:54:21;;;;;;;25.17;17.40;;;;;;;13.96;56.17;99927.44;5026799;28;20022;-59
2021/11/01 09:57:01;;;;;;;26.80;16.77;;;;;;;14.00;56.91;99908.41;5022021;28;20469;-60
2021/11/01 09:59:38;;;;;;;27.48;18.15;;;;;;;14.08;56.05;99907.00;5021580;28;20104;-59
2021/11/01 10:02:07;;;;;;;23.70;16.30;;;;;;;14.12;56.57;99902.06;5024051;28;20025;-58
2021/11/01 10:04:34;;;;;;;29.17;17.20;;;;;;;14.19;55.57;99901.88;5027928;28;20636;-58
2021/11/01 10:07:19;;;;;;;26.13;17.52;;;;;;;14.20;55.76;99897.81;5038990;28;20079;-59
2021/11/01 10:09:52;;;;;;;24.65;17.65;;;;;;;14.25;55.46;99885.22;5038493;28;20017;-59
2021/11/01 10:12:31;;;;;;;25.38;16.38;;;;;;;14.30;54.72;99888.31;5038776;28;20025;-58
2021/11/01 10:17:32;;;;;;;25.35;17.10;;;;;;;14.31;54.99;99887.06;5038723;28;20424;-59
2021/11/01 10:17:54;;;;;;;28.85;16.38;;;;;;;14.29;55.31;99877.44;5038253;28;20041;-59
2021/11/01 10:20:20;;;;;;;29.52;17.40;;;;;;;14.36;55.35;99900.66;5038564;28;20021;-59
2021/11/01 10:22:46;;;;;;;25.25;16.80;;;;;;;14.40;54.74;99877.97;5038566;28;20031;-58
2021/11/01 10:25:17;;;;;;;27.25;18.38;;;;;;;14.48;54.48;99873.75;5038359;28;20025;-57
2021/11/01 10:27:47;;;;;;;;;;;;;;;14.48;54.75;99868.88;5033708;28;20120;-56
2021/11/01 10:30:15;;;;;;;30.83;20.45;;;;;;;14.53;55.02;99857.06;5037355;28;20292;-59
2021/11/01 10:32:46;;;;;;;25.90;16.65;;;;;;;14.58;54.36;99855.72;5036529;28;20025;-58
2021/11/01 10:35:21;;;;;;;28.58;17.42;;;;;;;14.58;54.61;99854.94;5035079;28;20067;-59
2021/11/01 10:38:11;;;;;;;24.75;16.92;;;;;;;14.65;54.46;99841.41;5033054;28;20083;-57
2021/11/01 10:40:45;;;;;;;31.27;16.90;;;;;;;14.67;54.40;99836.09;5021210;28;20026;-58
2021/11/01 11:14:09;;;;;;;22.23;15.73;;;;;;;15.64;51.68;99805.88;5025526;28;20091;-58
2021/11/01 11:19:33;;;;;;;23.33;14.82;;;;;;;15.68;51.58;99810.19;5029587;28;20037;-58
2021/11/01 11:22:18;;;;;;;27.42;16.98;;;;;;;15.71;52.00;99803.63;5037334;28;20021;-54
2021/11/01 11:30:24;;;;;;;23.55;15.00;;;;;;;15.85;51.84;99787.41;5037147;28;20025;-54
2021/11/01 11:33:12;;;;;;;22.30;16.33;;;;;;;15.93;51.19;99781.06;5036643;28;20033;-54
2021/11/01 11:39:24;;;;;;;22.60;14.93;;;;;;;16.06;50.60;99778.22;5037055;28;19958;-57
2021/11/01 11:47:42;;;;;;;21.17;14.88;;;;;;;16.24;49.89;99781.25;5036269;28;20057;-53
2021/11/01 11:50:14;;;;;;;23.70;14.23;;;;;;;16.27;49.01;99779.56;5036699;28;20321;-53
2021/11/01 11:52:39;;;;;;;32.42;15.55;;;;;;;16.26;49.90;99766.63;5032876;28;20029;-57
2021/11/01 11:55:24;;;;;;;24.67;16.45;;;;;;;16.26;49.71;99766.63;5036229;28;20025;-60
2021/11/01 11:58:07;;;;;;;21.20;15.05;;;;;;;16.37;49.88;99761.38;5033095;28;20332;-56
2021/11/01 12:00:34;;;;;;;22.70;15.90;;;;;;;16.43;49.82;99762.38;5036517;28;20053;-54
2021/11/01 12:03:17;;;;;;;25.95;17.02;;;;;;;16.43;49.47;99753.06;5036689;28;20309;-56
2021/11/01 12:05:49;;;;;;;22.50;16.17;;;;;;;16.43;49.85;99753.06;5032778;28;20147;-54
2021/11/01 12:08:23;;;;;;;21.65;14.73;;;;;;;16.47;49.60;99745.25;5036404;28;20022;-56
2021/11/01 12:19:05;;;;;;;21.70;14.25;;;;;;;16.69;48.79;99729.06;5020776;28;20140;-58
2021/11/01 12:21:41;;;;;;;23.63;14.85;;;;;;;16.67;48.69;99734.41;5021891;28;20028;-57
2021/11/01 12:24:11;;;;;;;20.63;14.27;;;;;;;16.62;49.14;99721.56;5020082;28;20037;-53
2021/11/01 12:26:42;;;;;;;20.73;13.88;;;;;;;16.61;49.54;99724.88;5020481;28;20022;-56
2021/11/01 12:29:10;;;;;;;23.25;14.07;;;;;;;16.59;48.91;99710.38;5018992;28;20022;-55
2021/11/01 12:31:36;;;;;;;24.10;14.95;;;;;;;16.56;49.26;99714.13;5030391;28;20037;-58
2021/11/01 12:39:09;;;;;;;18.90;14.20;;;;;;;16.59;49.06;99704.69;5035452;28;20068;-56
2021/11/01 12:57:45;;;;;;;22.10;15.18;;;;;;;16.34;48.91;99683.69;5033358;28;20110;-56
2021/11/01 13:00:12;;;;;;;22.45;15.00;;;;;;;16.28;49.79;99677.00;5035275;28;20057;-56
2021/11/01 13:02:44;;;;;;;25.42;15.27;;;;;;;16.27;49.60;99685.97;5014911;28;20041;-55
2021/11/01 13:05:25;;;;;;;31.25;17.35;;;;;;;16.27;49.98;99666.91;5035224;28;20069;-57
2021/11/01 13:07:56;;;;;;;44.37;15.70;;;;;;;16.33;49.14;99659.41;5035275;28;20021;-56
2021/11/01 13:18:36;;;;;;;32.50;17.52;;;;;;;16.31;49.51;99655.44;5035183;28;20075;-59
2021/11/01 13:21:13;;;;;;;22.27;16.38;;;;;;;16.27;49.86;99661.25;5035343;28;20033;-59
2021/11/01 13:23:49;;;;;;;21.13;16.52;;;;;;;16.24;49.91;99656.50;5035082;28;20017;-59
2021/11/01 13:26:24;;;;;;;28.10;17.48;;;;;;;16.25;50.23;99654.47;5035117;28;20028;-59
2021/11/01 13:29:05;;;;;;;24.27;16.10;;;;;;;16.26;49.69;99653.22;5021549;28;20057;-58
2021/11/01 13:37:07;;;;;;;23.33;15.52;;;;;;;16.25;49.79;99638.25;5035157;28;20041;-59
2021/11/01 13:39:33;;;;;;;26.00;15.77;;;;;;;16.21;50.00;99646.09;5035197;28;20036;-58
2021/11/01 13:41:59;;;;;;;23.58;15.43;;;;;;;16.15;50.08;99642.22;5035499;28;20021;-57
2021/11/01 13:44:26;;;;;;;24.95;15.88;;;;;;;16.13;50.38;99646.78;5031921;28;20436;-59
2021/11/01 13:46:57;;;;;;;23.25;15.60;;;;;;;16.13;50.74;99649.63;5029264;28;20441;-53
2021/11/01 13:49:27;;;;;;;22.98;15.38;;;;;;;16.13;51.08;99641.91;5021992;28;20329;-55
2021/11/01 13:51:53;;;;;;;25.42;16.27;;;;;;;16.10;50.31;99634.31;5018491;28;20260;-59
2021/11/01 13:56:55;;;;;;;22.45;16.13;;;;;;;16.05;50.67;99623.56;5018099;28;20034;-60
2021/11/01 14:16:18;;;;;;;27.95;18.02;;;;;;;15.86;51.54;99616.94;4966593;28;20027;-58
2021/11/01 15:19:46;;;;;;;24.60;18.48;;;;;;;14.75;55.69;99553.81;4676467;28;10001494;-57
2021/11/01 15:22:30;;;;;;;23.73;17.00;;;;;;;14.66;55.85;99553.72;5027032;28;20030;-59
2021/11/01 15:40:38;;;;;;;25.45;17.35;;;;;;;14.10;55.82;99571.06;5036585;28;20040;-55
2021/11/01 16:18:15;;;;;;;30.00;22.75;;;;;;;12.80;59.66;99542.91;5035781;28;20021;-56
2021/11/01 16:20:42;;;;;;;32.28;22.30;;;;;;;12.73;60.15;99548.72;5036379;28;20083;-56
2021/11/01 16:25:37;;;;;;;31.65;20.17;;;;;;;12.69;60.50;99535.50;5036537;28;20025;-57
2021/11/01 16:28:03;;;;;;;31.90;22.23;;;;;;;12.76;60.51;99533.75;5036151;28;20037;-59
2021/11/01 16:30:32;;;;;;;34.33;20.83;;;;;;;12.83;60.11;99544.88;5036001;28;20092;-55
2021/11/01 16:33:06;;;;;;;43.17;27.80;;;;;;;12.90;59.53;99547.53;5035759;28;20029;-56
2021/11/01 16:35:38;;;;;;;44.13;27.25;;;;;;;12.93;60.38;99541.00;5035892;28;20056;-57
2021/11/01 16:40:29;;;;;;;42.28;26.38;;;;;;;12.95;59.50;99547.00;5033061;28;20322;-59
2021/11/01 16:42:56;;;;;;;36.65;24.98;;;;;;;12.95;59.96;99538.53;5035633;28;20036;-57
2021/11/01 16:47:58;;;;;;;29.80;18.40;;;;;;;12.98;59.60;99541.28;5035226;28;20389;-57
2021/11/01 16:50:24;;;;;;;28.05;18.52;;;;;;;13.04;59.57;99543.56;5035471;28;20120;-55
2021/11/01 16:52:49;;;;;;;26.83;17.17;;;;;;;13.11;59.16;99537.75;5035449;28;20494;-57
2021/11/01 16:55:22;;;;;;;25.23;17.13;;;;;;;13.16;59.75;99538.03;5035935;28;20029;-58
2021/11/01 16:57:57;;;;;;;23.48;15.93;;;;;;;13.17;59.03;99533.19;5035591;28;20021;-58
2021/11/01 17:00:41;;;;;;;24.23;17.20;;;;;;;13.14;59.22;99534.03;5035761;28;20365;-57
2021/11/01 17:29:10;;;;;;;44.35;27.58;;;;;;;13.04;59.41;99513.34;5033455;28;20298;-58
2021/11/01 17:34:49;;;;;;;34.85;21.33;;;;;;;12.98;59.51;99507.44;5033486;28;20104;-58
2021/11/01 18:51:33;;;;;;;36.80;23.60;;;;;;;13.10;58.64;99426.94;5037541;28;20094;-59
2021/11/01 18:54:29;;;;;;;36.08;22.88;;;;;;;13.10;59.34;99429.75;5037617;28;20029;-57
2021/11/01 18:56:58;;;;;;;38.15;22.60;;;;;;;13.11;58.86;99428.50;5036747;28;20116;-58
2021/11/01 18:59:26;;;;;;;35.42;21.95;;;;;;;13.10;59.32;99420.50;5037191;28;20025;-59
2021/11/01 19:04:48;;;;;;;36.60;24.38;;;;;;;13.08;59.74;99418.13;5028894;28;20354;-56
2021/11/01 19:07:31;;;;;;;37.40;23.77;;;;;;;13.07;59.73;99413.72;5028557;28;20029;-57
2021/11/01 20:05:16;;;;;;;36.58;24.75;;;;;;;12.94;60.28;99387.47;5028733;28;20075;-58
2021/11/01 20:13:15;;;;;;;39.88;24.75;;;;;;;12.87;59.80;99384.81;5023328;28;20048;-58
2021/11/01 20:16:05;;;;;;;41.60;23.67;;;;;;;12.90;60.23;99378.31;5034724;28;20017;-57
2021/11/01 21:25:23;;;;;;;39.15;25.58;;;;;;;12.35;59.78;99364.00;4951497;28;20036;-59
2021/11/01 21:27:50;;;;;;;36.80;24.65;;;;;;;12.32;59.57;99362.03;5030009;28;20045;-59
2021/11/01 21:30:16;;;;;;;37.88;24.17;;;;;;;12.32;59.84;99355.59;5015543;28;20026;-59
2021/11/01 21:32:43;;;;;;;41.85;25.27;;;;;;;12.32;59.92;99350.75;5015467;28;20084;-59
2021/11/01 21:35:12;;;;;;;37.20;23.38;;;;;;;12.30;59.51;99352.44;5015686;28;20329;-60
2021/11/01 21:37:38;;;;;;;42.15;23.90;;;;;;;12.28;59.86;99340.81;5010412;28;20018;-57
2021/11/01 21:40:06;;;;;;;34.83;23.92;;;;;;;12.28;59.96;99346.44;5015231;28;20163;-59
2021/11/01 21:42:32;;;;;;;39.83;23.98;;;;;;;12.31;59.68;99329.44;5010671;28;20406;-59
2021/11/01 21:44:58;;;;;;;42.20;24.98;;;;;;;12.29;59.68;99328.31;5008329;28;20029;-59
2021/11/01 21:47:24;;;;;;;41.65;25.80;;;;;;;12.27;59.50;99319.50;5023367;28;20056;-59
2021/11/01 21:49:49;;;;;;;38.08;23.38;;;;;;;12.18;59.90;99320.13;5019872;28;20033;-59
2021/11/01 21:52:16;;;;;;;32.22;22.30;;;;;;;12.17;59.71;99309.31;5020722;28;20160;-60
2021/11/01 21:54:54;;;;;;;33.22;22.80;;;;;;;12.16;59.79;99319.78;5027850;28;20025;-59
2021/11/01 21:57:23;;;;;;;35.28;22.48;;;;;;;12.10;59.89;99315.91;5019437;28;20144;-59
2021/11/01 22:18:15;;;;;;;31.45;20.23;;;;;;;11.99;60.21;99306.91;5031173;28;20033;-60
2021/11/01 22:20:45;;;;;;;34.15;22.83;;;;;;;11.98;60.00;99303.31;5034599;28;20076;-58
2021/11/01 22:23:13;;;;;;;34.38;21.63;;;;;;;11.97;60.38;99296.09;5034606;28;20075;-60
2021/11/01 22:25:52;;;;;;;34.80;21.35;;;;;;;11.98;60.50;99296.88;5034859;28;20043;-59
2021/11/01 22:41:49;;;;;;;31.55;21.42;;;;;;;11.82;60.66;99266.69;5035928;28;20029;-60
2021/11/01 22:57:54;;;;;;;31.73;20.27;;;;;;;11.81;61.11;99236.16;5037736;28;20171;-60
2021/11/01 23:00:29;;;;;;;35.30;20.85;;;;;;;11.83;61.05;99242.94;5037822;28;20029;-60
2021/11/01 23:03:00;;;;;;;30.13;20.27;;;;;;;11.84;61.13;99238.91;5031451;28;20487;-60
2021/11/01 23:05:46;;;;;;;30.35;20.05;;;;;;;11.76;61.05;99232.59;5037553;28;20071;-60
2021/11/01 23:32:55;;;;;;;36.40;21.65;;;;;;;11.33;62.69;99190.63;5036333;28;20056;-59
2021/11/01 23:35:20;;;;;;;33.50;20.50;;;;;;;11.36;62.66;99189.75;5036031;28;20404;-60
2021/11/01 23:37:45;;;;;;;33.22;21.08;;;;;;;11.38;62.60;99180.84;5036777;28;20071;-60
2021/11/01 23:40:11;;;;;;;34.80;21.63;;;;;;;11.37;62.50;99177.25;5036816;28;20025;-58
2021/11/01 23:42:36;;;;;;;30.08;20.45;;;;;;;11.35;63.27;99170.47;5037252;28;20099;-59
2021/11/01 23:45:03;;;;;;;35.83;19.75;;;;;;;11.33;62.92;99170.13;5036981;28;20294;-59
2021/11/01 23:47:29;;;;;;;33.00;20.30;;;;;;;11.35;63.15;99162.03;5033114;28;20484;-59
2021/11/01 23:49:54;;;;;;;30.77;19.95;;;;;;;11.29;62.56;99161.00;5032360;28;20144;-60
2021/11/01 23:52:22;;;;;;;33.72;20.85;;;;;;;11.18;63.25;99164.03;5035303;28;20074;-60
2021/11/01 23:54:48;;;;;;;33.45;21.58;;;;;;;11.12;63.43;99165.78;5036252;28;20118;-59
2021/11/01 23:57:16;;;;;;;35.92;21.52;;;;;;;11.05;63.23;99157.50;5037069;28;20397;-60
2021/11/01 23:59:43;;;;;;;36.75;21.25;;;;;;;10.96;63.78;99154.50;5034864;28;20104;-60
